Les Escoumins, Canada
Current Conditions -  °F | °C
As of 8:00 AM on Friday 31 Oct 2014 (Local Time) from CYYY Reporting Station
Scattered Clouds Scattered Clouds  
Wind Chill: 32°   Ceiling: Unl
Heat Index: 32°   Visibility: 30mi
Dew Point: 30°   Wind: 3mph
Humidity: 93%   Direction: 210°SSW
Pressure: 30.05"   Gusts: NA
Location:  48.35°N, 69.42°W
Report Text: CYYY 311200Z 21003KT 30SM FEW040 SCT080 00/M01 A3005 RMK SC1AC3 SLP177
Loading
Personal Weather Stations






























Interactive Weather Map
Tropical Storm Tracking
New forecast layout! Learn more

10-Day Weather Forecast

Advertisements
Track Severe Weather on mobile